createdAt,value
2018-12-07T00:00:11.825Z,-0.99
2018-12-07T00:03:41.769Z,-0.91
2018-12-07T00:07:11.912Z,-0.82
2018-12-07T00:10:41.979Z,-0.81
2018-12-07T00:14:13.266Z,-0.83
2018-12-07T00:17:43.526Z,-0.92
2018-12-07T00:21:13.679Z,-1.03
2018-12-07T00:24:43.670Z,-1.1
2018-12-07T00:28:13.803Z,-1.17
2018-12-07T00:31:43.765Z,-1.2
2018-12-07T00:35:13.966Z,-1.14
2018-12-07T00:38:44.210Z,-1.12
2018-12-07T00:42:14.320Z,-1.13
2018-12-07T00:45:44.472Z,-1.14
2018-12-07T00:49:14.484Z,-1.2
2018-12-07T00:52:44.525Z,-1.14
2018-12-07T00:56:14.507Z,-1.17
2018-12-07T00:59:44.529Z,-1.2
2018-12-07T01:03:14.652Z,-1.23
2018-12-07T01:06:44.783Z,-1.09
2018-12-07T01:10:14.845Z,-1.01
2018-12-07T01:13:44.927Z,-0.97
2018-12-07T01:17:15.238Z,-0.89
2018-12-07T01:20:45.270Z,-0.81
2018-12-07T01:24:15.362Z,-0.84
2018-12-07T01:27:45.485Z,-0.8
2018-12-07T01:31:15.557Z,-0.77
2018-12-07T01:34:45.705Z,-0.66
2018-12-07T01:38:15.830Z,-0.7
2018-12-07T01:41:45.932Z,-0.72
2018-12-07T01:45:16.014Z,-0.75
2018-12-07T01:48:46.286Z,-0.8
2018-12-07T01:52:16.424Z,-0.82
2018-12-07T01:55:46.561Z,-0.86
2018-12-07T01:59:16.702Z,-0.93
2018-12-07T02:00:11.450Z,-0.95
2018-12-07T02:03:41.441Z,-0.99
2018-12-07T02:07:43.872Z,-1.01
2018-12-07T02:11:13.957Z,-1.05
2018-12-07T02:14:44.045Z,-1.14
2018-12-07T02:18:14.068Z,-1.28
2018-12-07T02:21:44.200Z,-1.34
2018-12-07T02:25:14.161Z,-1.41
2018-12-07T02:28:44.374Z,-1.5
2018-12-07T02:32:14.415Z,-1.61
2018-12-07T02:35:44.541Z,-1.63
2018-12-07T02:39:14.534Z,-1.68
2018-12-07T02:42:44.611Z,-1.68
2018-12-07T02:46:14.633Z,-1.64
2018-12-07T02:49:44.955Z,-1.7
2018-12-07T02:53:14.967Z,-1.74
2018-12-07T02:56:45.062Z,-1.71
2018-12-07T03:00:15.277Z,-1.71
2018-12-07T03:03:45.382Z,-1.67
2018-12-07T03:07:15.375Z,-1.63
2018-12-07T03:10:45.388Z,-1.59
2018-12-07T03:14:15.334Z,-1.55
2018-12-07T03:17:45.400Z,-1.53
2018-12-07T03:21:15.506Z,-1.39
2018-12-07T03:24:45.783Z,-1.46
2018-12-07T03:28:15.873Z,-1.49
2018-12-07T03:31:45.979Z,-1.54
2018-12-07T03:35:16.126Z,-1.5
2018-12-07T03:38:46.531Z,-1.49
2018-12-07T03:42:16.623Z,-1.45
2018-12-07T03:45:46.715Z,-1.49
2018-12-07T03:49:16.790Z,-1.55
2018-12-07T03:52:47.189Z,-1.58
2018-12-07T03:56:17.141Z,-1.7
2018-12-07T03:59:47.213Z,-1.72
2018-12-07T04:00:11.320Z,-1.71
2018-12-07T04:03:41.849Z,-1.75
2018-12-07T04:07:11.986Z,-1.75
2018-12-07T04:10:42.058Z,-1.82
2018-12-07T04:14:12.101Z,-1.87
2018-12-07T04:17:42.148Z,-1.95
2018-12-07T04:21:12.324Z,-2.01
2018-12-07T04:24:42.394Z,-2.08
2018-12-07T04:28:12.402Z,-2.03
2018-12-07T04:31:42.654Z,-2.02
2018-12-07T04:35:12.644Z,-2
2018-12-07T04:38:42.714Z,-2.02
2018-12-07T04:42:12.769Z,-2
2018-12-07T04:45:42.738Z,-1.98
2018-12-07T04:49:12.880Z,-1.97
2018-12-07T04:52:43.061Z,-1.96
2018-12-07T04:56:13.191Z,-1.95
2018-12-07T04:59:43.145Z,-1.94
2018-12-07T05:03:13.252Z,-1.92
2018-12-07T05:06:43.359Z,-1.9
2018-12-07T05:10:13.521Z,-1.89
2018-12-07T05:13:43.533Z,-1.89
2018-12-07T05:17:13.615Z,-1.9
2018-12-07T05:20:43.787Z,-1.88
2018-12-07T05:24:13.827Z,-1.86
2018-12-07T05:27:43.960Z,-1.84
2018-12-07T05:31:14.114Z,-1.85
2018-12-07T05:34:44.121Z,-1.8
2018-12-07T05:38:14.152Z,-1.7
2018-12-07T05:41:44.229Z,-1.59
2018-12-07T05:45:14.420Z,-1.48
2018-12-07T05:48:44.522Z,-1.33
2018-12-07T05:52:14.714Z,-1.17
2018-12-07T05:55:44.796Z,-1.01
2018-12-07T05:59:15.098Z,-0.77
2018-12-07T06:00:10.276Z,-0.72
2018-12-07T06:03:40.322Z,-0.55
2018-12-07T06:07:10.360Z,-0.38
2018-12-07T06:10:40.347Z,-0.26
2018-12-07T06:14:10.435Z,-0.11
2018-12-07T06:17:40.465Z,0.02
2018-12-07T06:21:10.455Z,0.12
2018-12-07T06:24:40.499Z,0.23
2018-12-07T06:28:10.571Z,0.4
2018-12-07T06:31:40.734Z,0.6
2018-12-07T06:35:10.926Z,0.79
2018-12-07T06:38:41.028Z,0.98
2018-12-07T06:42:11.309Z,1.13
2018-12-07T06:45:41.381Z,1.26
2018-12-07T06:49:12.073Z,1.36
2018-12-07T06:52:42.035Z,1.4
2018-12-07T06:56:12.117Z,1.58
2018-12-07T06:59:42.381Z,1.57
2018-12-07T07:03:12.491Z,1.34
2018-12-07T07:06:42.493Z,1.06
2018-12-07T07:10:12.460Z,1.08
2018-12-07T07:13:42.657Z,1.12
2018-12-07T07:17:12.889Z,1.12
2018-12-07T07:20:42.975Z,1.02
2018-12-07T07:24:13.293Z,0.81
2018-12-07T07:27:43.315Z,0.59
2018-12-07T07:31:13.416Z,0.36
2018-12-07T07:34:43.439Z,0.28
2018-12-07T07:38:13.591Z,0.31
2018-12-07T07:41:43.623Z,0.44
2018-12-07T07:45:13.785Z,0.56
2018-12-07T07:48:43.751Z,0.74
2018-12-07T07:52:13.824Z,0.91
2018-12-07T07:55:43.863Z,1.11
2018-12-07T07:59:13.943Z,1.29
2018-12-07T08:00:10.421Z,1.33
2018-12-07T08:03:40.443Z,1.44
2018-12-07T08:07:10.565Z,1.54
2018-12-07T08:10:40.607Z,1.64
2018-12-07T08:14:10.619Z,1.74
2018-12-07T08:17:40.688Z,1.75
2018-12-07T08:21:10.783Z,1.95
2018-12-07T08:24:40.856Z,2.15
2018-12-07T08:28:11.012Z,2.28
2018-12-07T08:31:41.225Z,2.37
2018-12-07T08:35:11.342Z,2.56
2018-12-07T08:38:41.424Z,2.62
2018-12-07T08:42:11.526Z,2.72
2018-12-07T08:45:41.627Z,2.82
2018-12-07T08:49:11.673Z,2.89
2018-12-07T08:52:41.702Z,2.82
2018-12-07T08:56:11.793Z,2.96
2018-12-07T08:59:41.869Z,3.09
2018-12-07T09:03:12.113Z,3.07
2018-12-07T09:14:24.973Z,3.09
2018-12-07T09:17:55.045Z,3.05
2018-12-07T09:21:25.037Z,3.12
2018-12-07T09:24:55.089Z,3.19
2018-12-07T09:28:25.101Z,3.08
2018-12-07T09:31:55.183Z,3.3
2018-12-07T09:35:25.322Z,3.49
2018-12-07T09:38:55.407Z,3.53
2018-12-07T09:42:25.626Z,3.63
2018-12-07T09:45:55.671Z,3.74
2018-12-07T09:49:25.904Z,3.82
2018-12-07T09:52:55.981Z,3.87
2018-12-07T09:56:26.118Z,3.93
2018-12-07T10:00:09.912Z,4.17
2018-12-07T10:03:40.084Z,4.11
2018-12-07T10:07:10.177Z,4.39
2018-12-07T10:10:40.387Z,4.43
2018-12-07T10:14:10.539Z,4.76
2018-12-07T10:17:40.636Z,5.12
2018-12-07T10:21:10.723Z,5.39
2018-12-07T10:24:40.956Z,5.42
2018-12-07T10:28:11.018Z,5.72
2018-12-07T10:31:41.170Z,5.98
2018-12-07T10:35:11.303Z,5.89
2018-12-07T10:38:41.335Z,6.28
2018-12-07T10:42:11.357Z,6.83
2018-12-07T10:45:41.449Z,7.43
2018-12-07T10:49:11.464Z,7.92
2018-12-07T10:52:41.624Z,7.42
2018-12-07T10:56:11.646Z,7.29
2018-12-07T10:59:41.628Z,7.14
2018-12-07T11:09:43.397Z,7.57
2018-12-07T12:00:09.907Z,8.28
2018-12-07T12:03:39.919Z,8.6
2018-12-07T12:07:09.972Z,8.66
2018-12-07T12:10:40.195Z,8.41
2018-12-07T12:14:10.167Z,8.19
2018-12-07T12:17:40.162Z,8.32
2018-12-07T12:21:10.104Z,7.65
2018-12-07T12:24:40.184Z,7.69
2018-12-07T12:28:10.227Z,8.07
2018-12-07T12:31:40.119Z,8.21
2018-12-07T12:35:10.201Z,7.51
2018-12-07T12:38:40.209Z,7.28
2018-12-07T12:42:10.316Z,7.58
2018-12-07T12:45:40.588Z,7.33
2018-12-07T12:49:10.633Z,7.3
2018-12-07T12:52:40.594Z,7.04
2018-12-07T12:56:10.587Z,6.94
2018-12-07T12:59:40.628Z,6.68
2018-12-07T13:03:10.718Z,6.61
2018-12-07T13:06:40.896Z,6.39
2018-12-07T13:10:10.995Z,6.28
2018-12-07T13:13:41.277Z,6.4
2018-12-07T13:17:11.379Z,6.39
2018-12-07T13:20:41.422Z,6.19
2018-12-07T13:24:11.494Z,5.84
2018-12-07T13:27:41.580Z,5.84
2018-12-07T13:31:12.030Z,5.86
2018-12-07T13:34:42.071Z,5.69
2018-12-07T13:38:12.176Z,5.26
2018-12-07T13:41:42.368Z,5.37
2018-12-07T13:45:12.511Z,5.6
2018-12-07T13:48:42.871Z,5.55
2018-12-07T13:52:13.098Z,5.58
2018-12-07T13:55:43.232Z,5.38
2018-12-07T13:59:13.460Z,5.29
2018-12-07T14:00:09.737Z,5.3
2018-12-07T14:03:39.956Z,5.08
2018-12-07T14:07:10.262Z,5.06
2018-12-07T14:10:40.279Z,5.1
2018-12-07T14:14:10.569Z,4.9
2018-12-07T14:17:40.657Z,4.96
2018-12-07T14:21:10.744Z,4.87
2018-12-07T14:24:40.827Z,4.78
2018-12-07T14:28:10.926Z,4.71
2018-12-07T14:31:41.115Z,4.51
2018-12-07T14:35:11.280Z,4.44
2018-12-07T14:38:41.448Z,4.23
2018-12-07T14:42:11.633Z,4.13
2018-12-07T14:45:41.708Z,3.95
2018-12-07T14:49:12.182Z,3.78
2018-12-07T14:52:42.316Z,3.56
2018-12-07T14:56:12.509Z,3.53
2018-12-07T14:59:42.541Z,3.35
2018-12-07T15:03:12.755Z,3.3
2018-12-07T15:06:42.943Z,3.21
2018-12-07T15:10:13.139Z,3.2
2018-12-07T15:13:43.403Z,3.17
2018-12-07T15:17:13.722Z,3.21
2018-12-07T15:20:43.654Z,3.11
2018-12-07T15:24:13.911Z,3.09
2018-12-07T15:27:44.066Z,3
2018-12-07T15:31:14.318Z,2.96
2018-12-07T15:34:44.445Z,2.9
2018-12-07T15:38:14.515Z,2.88
2018-12-07T15:41:44.761Z,2.95
2018-12-07T15:45:14.861Z,3.03
2018-12-07T15:48:45.159Z,2.91
2018-12-07T15:52:15.330Z,2.89
2018-12-07T15:55:45.676Z,2.88
2018-12-07T15:59:16.077Z,2.97
2018-12-07T16:00:09.804Z,2.99
2018-12-07T16:03:39.900Z,3
2018-12-07T16:07:10.211Z,3.02
2018-12-07T16:10:40.292Z,3.12
2018-12-07T16:14:10.363Z,3.16
2018-12-07T16:17:40.748Z,3.2
2018-12-07T16:21:10.808Z,3.15
2018-12-07T16:24:40.990Z,3.14
2018-12-07T16:28:11.270Z,3.12
2018-12-07T16:31:41.310Z,3.2
2018-12-07T16:35:11.736Z,3.29
2018-12-07T16:38:41.881Z,3.42
2018-12-07T16:42:12.088Z,3.43
2018-12-07T16:45:42.465Z,3.46
2018-12-07T16:49:12.615Z,3.48
2018-12-07T16:52:42.619Z,3.55
2018-12-07T16:56:12.753Z,3.44
2018-12-07T16:59:42.881Z,3.37
2018-12-07T17:03:13.020Z,3.37
2018-12-07T17:06:43.189Z,3.34
2018-12-07T17:10:13.413Z,3.27
2018-12-07T17:13:43.544Z,3.26
2018-12-07T17:17:13.742Z,3.19
2018-12-07T17:20:44.578Z,3.21
2018-12-07T17:24:14.910Z,3.24
2018-12-07T17:27:44.988Z,3.29
2018-12-07T17:31:15.287Z,3.29
2018-12-07T17:34:45.590Z,3.28
2018-12-07T17:38:15.894Z,3.3
2018-12-07T17:41:46.111Z,3.3
2018-12-07T17:45:16.299Z,3.22
2018-12-07T17:48:46.432Z,3.24
2018-12-07T17:52:16.805Z,3.17
2018-12-07T17:55:46.931Z,3.19
2018-12-07T17:59:17.199Z,3.14
2018-12-07T18:00:11.766Z,3.1
2018-12-07T18:03:41.944Z,3.12
2018-12-07T18:07:12.145Z,3.12
2018-12-07T18:10:42.400Z,3.06
2018-12-07T18:14:12.515Z,3.06
2018-12-07T18:17:42.623Z,3.03
2018-12-07T18:21:12.939Z,3.02
2018-12-07T18:24:43.113Z,2.95
2018-12-07T18:28:13.308Z,2.94
2018-12-07T18:31:43.638Z,2.91
2018-12-07T18:35:13.874Z,2.9
2018-12-07T18:38:43.898Z,2.9
2018-12-07T18:42:14.192Z,2.93
2018-12-07T18:45:44.194Z,2.83
2018-12-07T18:49:14.587Z,2.88
2018-12-07T18:52:44.779Z,2.87
2018-12-07T18:56:14.844Z,2.84
2018-12-07T18:59:45.097Z,2.78
2018-12-07T19:03:15.304Z,2.81
2018-12-07T19:06:45.435Z,2.74
2018-12-07T19:10:15.639Z,2.77
2018-12-07T19:13:45.739Z,2.74
2018-12-07T19:17:16.097Z,2.75
2018-12-07T19:20:46.144Z,2.76
2018-12-07T19:24:16.345Z,2.71
2018-12-07T19:27:46.480Z,2.71
2018-12-07T19:31:16.540Z,2.76
2018-12-07T19:34:47.041Z,2.76
2018-12-07T19:38:17.475Z,2.72
2018-12-07T19:41:47.775Z,2.81
2018-12-07T19:45:17.886Z,2.79
2018-12-07T19:48:47.993Z,2.7
2018-12-07T19:52:18.121Z,2.66
2018-12-07T19:55:48.181Z,2.69
2018-12-07T19:59:18.523Z,2.75
2018-12-07T20:00:09.241Z,2.76
2018-12-07T20:03:39.492Z,2.66
2018-12-07T20:07:09.799Z,2.64
2018-12-07T20:10:39.929Z,2.63
2018-12-07T20:14:10.110Z,2.66
2018-12-07T20:17:40.427Z,2.64
2018-12-07T20:21:10.674Z,2.66
2018-12-07T20:24:41.479Z,2.7
2018-12-07T20:28:11.665Z,2.63
2018-12-07T20:31:41.947Z,2.65
2018-12-07T20:35:12.575Z,2.68
2018-12-07T20:38:43.238Z,2.69
2018-12-07T20:42:13.831Z,2.76
2018-12-07T20:45:44.155Z,2.82
2018-12-07T20:49:14.675Z,2.83
2018-12-07T20:52:44.836Z,2.67
2018-12-07T20:56:15.008Z,2.57
2018-12-07T20:59:45.305Z,2.65
2018-12-07T21:03:15.741Z,2.62
2018-12-07T21:10:24.240Z,2.56
2018-12-07T21:14:32.781Z,2.43
2018-12-07T21:18:02.935Z,2.47
2018-12-07T21:21:33.029Z,2.48
2018-12-07T21:25:03.700Z,2.54
2018-12-07T21:28:33.788Z,2.59
2018-12-07T21:32:06.952Z,2.57
2018-12-07T21:36:34.849Z,2.56
2018-12-07T21:40:09.972Z,2.63
2018-12-07T21:43:40.122Z,2.69
2018-12-07T21:47:10.407Z,2.57
2018-12-07T21:50:42.974Z,2.65
2018-12-07T21:54:13.173Z,2.64
2018-12-07T21:57:43.755Z,2.69
2018-12-07T22:00:08.374Z,2.73
2018-12-07T22:03:38.483Z,2.72
2018-12-07T22:07:08.614Z,2.78
2018-12-07T22:10:38.832Z,2.72
2018-12-07T22:14:09.245Z,2.85
2018-12-07T22:17:39.373Z,2.87
2018-12-07T22:21:09.630Z,2.93
2018-12-07T22:24:40.113Z,3.08
2018-12-07T22:28:10.621Z,3.12
2018-12-07T22:31:40.683Z,3.24
2018-12-07T22:35:10.984Z,3.27
2018-12-07T22:38:41.008Z,3.27
2018-12-07T22:42:11.380Z,3.23
2018-12-07T22:45:41.462Z,3.06
2018-12-07T22:49:11.544Z,3.12
2018-12-07T22:52:41.559Z,3.13
2018-12-07T22:56:11.729Z,3.1
2018-12-07T22:59:41.811Z,3.03
2018-12-07T23:03:11.902Z,2.93
2018-12-07T23:06:41.927Z,2.96
2018-12-07T23:10:12.067Z,2.9
2018-12-07T23:13:42.065Z,2.91
2018-12-07T23:17:12.059Z,2.98
2018-12-07T23:20:42.132Z,2.93
2018-12-07T23:24:12.083Z,2.96
2018-12-07T23:27:42.227Z,2.97
2018-12-07T23:31:12.549Z,2.91
2018-12-07T23:34:42.506Z,2.92
2018-12-07T23:38:12.585Z,2.93
2018-12-07T23:41:42.475Z,2.98
2018-12-07T23:45:12.527Z,2.93
2018-12-07T23:48:42.609Z,2.93
2018-12-07T23:52:12.749Z,2.94
2018-12-07T23:55:42.773Z,2.89
2018-12-07T23:59:12.985Z,2.93
